sensor_id;sensor_type;location;lat;lon;timestamp;pressure;altitude;pressure_sealevel;temperature;humidity
40940;BME280;26666;50.156;7.700;2023-04-21T00:03:03;100204.97;;;7.60;100.00
40940;BME280;26666;50.156;7.700;2023-04-21T00:08:06;100196.13;;;7.61;100.00
40940;BME280;26666;50.156;7.700;2023-04-21T00:13:08;100196.03;;;7.63;100.00
40940;BME280;26666;50.156;7.700;2023-04-21T00:18:10;100198.25;;;7.56;100.00
40940;BME280;26666;50.156;7.700;2023-04-21T00:23:15;100201.03;;;7.66;100.00
40940;BME280;26666;50.156;7.700;2023-04-21T00:28:16;100198.06;;;7.70;100.00
40940;BME280;26666;50.156;7.700;2023-04-21T00:33:18;100197.56;;;7.65;100.00
40940;BME280;26666;50.156;7.700;2023-04-21T00:38:21;100187.84;;;7.43;100.00
40940;BME280;26666;50.156;7.700;2023-04-21T00:43:23;100190.00;;;7.49;100.00
40940;BME280;26666;50.156;7.700;2023-04-21T00:48:25;100177.34;;;7.43;100.00
40940;BME280;26666;50.156;7.700;2023-04-21T00:53:28;100182.50;;;7.56;100.00
40940;BME280;26666;50.156;7.700;2023-04-21T00:58:30;100174.25;;;7.49;100.00
40940;BME280;26666;50.156;7.700;2023-04-21T01:03:33;100187.13;;;7.53;100.00
40940;BME280;26666;50.156;7.700;2023-04-21T01:08:37;100181.41;;;7.47;100.00
40940;BME280;26666;50.156;7.700;2023-04-21T01:13:39;100181.03;;;7.52;100.00
40940;BME280;26666;50.156;7.700;2023-04-21T01:18:41;100189.63;;;7.43;100.00
40940;BME280;26666;50.156;7.700;2023-04-21T01:23:44;100193.38;;;7.16;100.00
40940;BME280;26666;50.156;7.700;2023-04-21T01:28:46;100181.38;;;7.12;100.00
40940;BME280;26666;50.156;7.700;2023-04-21T01:33:48;100185.47;;;6.92;100.00
40940;BME280;26666;50.156;7.700;2023-04-21T01:38:51;100174.81;;;6.82;100.00
40940;BME280;26666;50.156;7.700;2023-04-21T01:43:53;100180.00;;;6.71;100.00
40940;BME280;26666;50.156;7.700;2023-04-21T01:48:55;100176.16;;;6.64;100.00
40940;BME280;26666;50.156;7.700;2023-04-21T01:53:59;100177.53;;;6.57;100.00
40940;BME280;26666;50.156;7.700;2023-04-21T01:59:01;100177.59;;;6.68;100.00
40940;BME280;26666;50.156;7.700;2023-04-21T02:04:04;100180.22;;;6.68;100.00
40940;BME280;26666;50.156;7.700;2023-04-21T02:09:08;100174.44;;;6.76;100.00
40940;BME280;26666;50.156;7.700;2023-04-21T02:14:10;100184.66;;;6.91;100.00
40940;BME280;26666;50.156;7.700;2023-04-21T02:19:12;100189.00;;;7.04;100.00
40940;BME280;26666;50.156;7.700;2023-04-21T02:24:16;100182.81;;;7.05;100.00
40940;BME280;26666;50.156;7.700;2023-04-21T02:29:18;100185.16;;;6.97;100.00
40940;BME280;26666;50.156;7.700;2023-04-21T02:34:20;100181.69;;;6.96;100.00
40940;BME280;26666;50.156;7.700;2023-04-21T02:39:24;100177.88;;;7.00;100.00
40940;BME280;26666;50.156;7.700;2023-04-21T02:44:26;100178.28;;;7.07;100.00
40940;BME280;26666;50.156;7.700;2023-04-21T02:49:28;100176.13;;;7.12;100.00
40940;BME280;26666;50.156;7.700;2023-04-21T02:54:34;100177.38;;;6.71;100.00
40940;BME280;26666;50.156;7.700;2023-04-21T02:59:36;100181.91;;;6.93;100.00
40940;BME280;26666;50.156;7.700;2023-04-21T03:04:37;100190.41;;;6.97;100.00
40940;BME280;26666;50.156;7.700;2023-04-21T03:09:40;100188.53;;;7.10;100.00
40940;BME280;26666;50.156;7.700;2023-04-21T03:14:42;100191.34;;;6.96;100.00
40940;BME280;26666;50.156;7.700;2023-04-21T03:19:44;100183.63;;;7.05;100.00
40940;BME280;26666;50.156;7.700;2023-04-21T03:24:47;100192.34;;;7.06;100.00
40940;BME280;26666;50.156;7.700;2023-04-21T03:29:49;100182.09;;;7.03;100.00
40940;BME280;26666;50.156;7.700;2023-04-21T03:34:50;100177.66;;;7.03;100.00
40940;BME280;26666;50.156;7.700;2023-04-21T03:39:54;100186.75;;;6.86;100.00
40940;BME280;26666;50.156;7.700;2023-04-21T03:44:55;100192.25;;;6.83;100.00
40940;BME280;26666;50.156;7.700;2023-04-21T03:49:57;100184.38;;;6.83;100.00
40940;BME280;26666;50.156;7.700;2023-04-21T03:55:00;100181.75;;;6.83;100.00
40940;BME280;26666;50.156;7.700;2023-04-21T04:00:02;100187.09;;;6.58;100.00
40940;BME280;26666;50.156;7.700;2023-04-21T04:05:04;100184.34;;;6.59;100.00
40940;BME280;26666;50.156;7.700;2023-04-21T04:10:08;100184.84;;;6.40;100.00
40940;BME280;26666;50.156;7.700;2023-04-21T04:15:10;100188.81;;;6.33;100.00
40940;BME280;26666;50.156;7.700;2023-04-21T04:20:11;100184.09;;;6.38;100.00
40940;BME280;26666;50.156;7.700;2023-04-21T04:25:15;100185.88;;;6.38;100.00
40940;BME280;26666;50.156;7.700;2023-04-21T04:30:16;100175.91;;;6.30;100.00
40940;BME280;26666;50.156;7.700;2023-04-21T04:35:18;100180.44;;;6.28;100.00
40940;BME280;26666;50.156;7.700;2023-04-21T04:40:22;100176.25;;;6.12;100.00
40940;BME280;26666;50.156;7.700;2023-04-21T04:45:25;100182.97;;;6.17;100.00
40940;BME280;26666;50.156;7.700;2023-04-21T04:50:27;100176.06;;;6.16;100.00
40940;BME280;26666;50.156;7.700;2023-04-21T04:55:30;100181.59;;;6.24;100.00
40940;BME280;26666;50.156;7.700;2023-04-21T05:00:31;100190.75;;;6.05;100.00
40940;BME280;26666;50.156;7.700;2023-04-21T05:05:33;100199.44;;;5.93;100.00
40940;BME280;26666;50.156;7.700;2023-04-21T05:10:36;100188.13;;;6.05;100.00
40940;BME280;26666;50.156;7.700;2023-04-21T05:15:38;100188.44;;;5.88;100.00
40940;BME280;26666;50.156;7.700;2023-04-21T05:20:40;100193.78;;;6.25;100.00
40940;BME280;26666;50.156;7.700;2023-04-21T05:25:43;100194.22;;;6.56;100.00
40940;BME280;26666;50.156;7.700;2023-04-21T05:30:45;100210.56;;;6.96;100.00
40940;BME280;26666;50.156;7.700;2023-04-21T05:35:47;100216.97;;;8.77;100.00
40940;BME280;26666;50.156;7.700;2023-04-21T05:40:53;100216.72;;;10.79;91.17
40940;BME280;26666;50.156;7.700;2023-04-21T05:45:55;100194.34;;;12.74;77.95
40940;BME280;26666;50.156;7.700;2023-04-21T05:51:07;100199.88;;;14.23;69.64
40940;BME280;26666;50.156;7.700;2023-04-21T05:56:10;100213.16;;;15.41;65.18
40940;BME280;26666;50.156;7.700;2023-04-21T06:01:12;100205.66;;;16.81;60.07
40940;BME280;26666;50.156;7.700;2023-04-21T06:06:14;100205.75;;;16.64;58.42
40940;BME280;26666;50.156;7.700;2023-04-21T06:11:20;100187.03;;;18.69;53.89
40940;BME280;26666;50.156;7.700;2023-04-21T06:16:22;100187.69;;;15.54;57.03
40940;BME280;26666;50.156;7.700;2023-04-21T06:21:24;100183.44;;;18.10;54.40
40940;BME280;26666;50.156;7.700;2023-04-21T06:26:27;100187.22;;;18.67;51.72
40940;BME280;26666;50.156;7.700;2023-04-21T06:31:28;100194.09;;;14.70;61.52
40940;BME280;26666;50.156;7.700;2023-04-21T06:36:30;100209.56;;;14.06;64.51
40940;BME280;26666;50.156;7.700;2023-04-21T06:41:33;100198.47;;;12.86;67.56
40940;BME280;26666;50.156;7.700;2023-04-21T06:46:35;100198.72;;;12.93;68.40
40940;BME280;26666;50.156;7.700;2023-04-21T06:51:37;100207.06;;;13.34;66.83
40940;BME280;26666;50.156;7.700;2023-04-21T06:56:40;100200.75;;;16.61;58.87
40940;BME280;26666;50.156;7.700;2023-04-21T07:01:42;100203.34;;;15.90;57.19
40940;BME280;26666;50.156;7.700;2023-04-21T07:06:43;100206.16;;;11.67;71.46
40940;BME280;26666;50.156;7.700;2023-04-21T07:11:46;100202.59;;;13.78;67.19
40940;BME280;26666;50.156;7.700;2023-04-21T07:16:48;100201.34;;;17.11;57.88
40940;BME280;26666;50.156;7.700;2023-04-21T07:21:50;100199.50;;;13.39;66.37
40940;BME280;26666;50.156;7.700;2023-04-21T07:26:54;100204.91;;;14.68;64.33
40940;BME280;26666;50.156;7.700;2023-04-21T07:31:55;100197.38;;;15.80;61.36
40940;BME280;26666;50.156;7.700;2023-04-21T07:36:57;100207.91;;;14.65;64.03
40940;BME280;26666;50.156;7.700;2023-04-21T07:42:00;100214.44;;;12.21;72.03
40940;BME280;26666;50.156;7.700;2023-04-21T07:47:02;100217.09;;;11.25;76.97
40940;BME280;26666;50.156;7.700;2023-04-21T07:52:04;100213.72;;;11.62;78.93
40940;BME280;26666;50.156;7.700;2023-04-21T07:57:07;100209.34;;;13.47;72.62
40940;BME280;26666;50.156;7.700;2023-04-21T08:02:08;100206.53;;;17.50;60.60
40940;BME280;26666;50.156;7.700;2023-04-21T08:07:10;100204.50;;;23.34;45.28
40940;BME280;26666;50.156;7.700;2023-04-21T08:12:14;100200.53;;;23.87;44.28
40940;BME280;26666;50.156;7.700;2023-04-21T08:17:15;100189.97;;;21.13;48.83
40940;BME280;26666;50.156;7.700;2023-04-21T08:22:17;100179.13;;;20.66;50.47
40940;BME280;26666;50.156;7.700;2023-04-21T08:27:20;100178.47;;;22.44;46.04
40940;BME280;26666;50.156;7.700;2023-04-21T08:32:22;100171.22;;;23.47;43.70
40940;BME280;26666;50.156;7.700;2023-04-21T08:37:24;100166.78;;;26.42;39.74
40940;BME280;26666;50.156;7.700;2023-04-21T08:42:27;100164.25;;;26.93;37.68
40940;BME280;26666;50.156;7.700;2023-04-21T08:47:29;100154.53;;;27.43;36.03
40940;BME280;26666;50.156;7.700;2023-04-21T08:52:32;100148.66;;;18.25;53.22
40940;BME280;26666;50.156;7.700;2023-04-21T08:57:35;100141.56;;;16.66;58.87
40940;BME280;26666;50.156;7.700;2023-04-21T09:02:51;100158.69;;;19.11;53.67
40940;BME280;26666;50.156;7.700;2023-04-21T09:08:10;100140.72;;;20.24;51.08
40940;BME280;26666;50.156;7.700;2023-04-21T09:13:13;100132.34;;;22.73;46.71
40940;BME280;26666;50.156;7.700;2023-04-21T09:18:17;100134.28;;;17.29;57.13
40940;BME280;26666;50.156;7.700;2023-04-21T09:23:20;100131.63;;;16.20;61.37
40940;BME280;26666;50.156;7.700;2023-04-21T09:28:30;100129.97;;;15.38;64.44
40940;BME280;26666;50.156;7.700;2023-04-21T09:33:32;100114.84;;;16.74;62.27
40940;BME280;26666;50.156;7.700;2023-04-21T09:38:34;100107.34;;;18.64;57.81
40940;BME280;26666;50.156;7.700;2023-04-21T09:43:38;100103.38;;;18.39;58.35
40940;BME280;26666;50.156;7.700;2023-04-21T09:48:42;100108.50;;;18.04;59.50
40940;BME280;26666;50.156;7.700;2023-04-21T09:53:44;100091.00;;;17.86;58.71
40940;BME280;26666;50.156;7.700;2023-04-21T09:58:53;100080.84;;;16.45;62.57
40940;BME280;26666;50.156;7.700;2023-04-21T10:03:55;100076.34;;;16.68;62.04
40940;BME280;26666;50.156;7.700;2023-04-21T10:08:57;100063.34;;;16.65;63.01
40940;BME280;26666;50.156;7.700;2023-04-21T10:14:00;100051.47;;;17.14;61.86
40940;BME280;26666;50.156;7.700;2023-04-21T10:19:21;100057.13;;;16.73;62.00
40940;BME280;26666;50.156;7.700;2023-04-21T10:24:27;100048.44;;;16.56;62.23
40940;BME280;26666;50.156;7.700;2023-04-21T10:29:32;100050.16;;;16.95;61.21
40940;BME280;26666;50.156;7.700;2023-04-21T10:34:55;100039.53;;;16.41;61.43
40940;BME280;26666;50.156;7.700;2023-04-21T10:39:57;100039.28;;;16.97;61.72
40940;BME280;26666;50.156;7.700;2023-04-21T10:45:10;100035.53;;;16.91;63.36
40940;BME280;26666;50.156;7.700;2023-04-21T10:50:14;100023.19;;;16.90;61.19
40940;BME280;26666;50.156;7.700;2023-04-21T10:55:16;100024.16;;;17.27;59.91
40940;BME280;26666;50.156;7.700;2023-04-21T11:00:22;100001.97;;;17.56;59.91
40940;BME280;26666;50.156;7.700;2023-04-21T11:05:33;100004.81;;;17.10;60.02
40940;BME280;26666;50.156;7.700;2023-04-21T11:10:47;99995.28;;;16.69;60.64
40940;BME280;26666;50.156;7.700;2023-04-21T11:15:59;99990.97;;;16.68;59.67
40940;BME280;26666;50.156;7.700;2023-04-21T11:21:08;99993.41;;;16.09;60.77
40940;BME280;26666;50.156;7.700;2023-04-21T11:26:10;99975.94;;;15.75;62.61
40940;BME280;26666;50.156;7.700;2023-04-21T11:31:14;99970.97;;;16.26;62.24
40940;BME280;26666;50.156;7.700;2023-04-21T11:36:20;99961.19;;;16.19;62.37
40940;BME280;26666;50.156;7.700;2023-04-21T11:41:22;99944.63;;;16.08;62.51
40940;BME280;26666;50.156;7.700;2023-04-21T11:46:27;99943.56;;;16.41;59.54
40940;BME280;26666;50.156;7.700;2023-04-21T11:51:33;99928.88;;;16.22;60.27
40940;BME280;26666;50.156;7.700;2023-04-21T11:56:35;99926.06;;;16.38;55.80
40940;BME280;26666;50.156;7.700;2023-04-21T12:01:46;99926.59;;;16.10;58.51
40940;BME280;26666;50.156;7.700;2023-04-21T12:06:55;99936.53;;;15.93;58.26
40940;BME280;26666;50.156;7.700;2023-04-21T12:11:58;99954.69;;;16.21;56.94
40940;BME280;26666;50.156;7.700;2023-04-21T12:17:01;99933.88;;;16.16;56.44
40940;BME280;26666;50.156;7.700;2023-04-21T12:22:06;99945.00;;;15.97;57.10
40940;BME280;26666;50.156;7.700;2023-04-21T12:27:08;99955.59;;;16.13;57.67
40940;BME280;26666;50.156;7.700;2023-04-21T12:32:11;99933.84;;;16.02;58.71
40940;BME280;26666;50.156;7.700;2023-04-21T12:37:13;99929.34;;;16.02;59.00
40940;BME280;26666;50.156;7.700;2023-04-21T12:42:15;99924.25;;;16.39;58.42
40940;BME280;26666;50.156;7.700;2023-04-21T12:47:18;99918.34;;;16.05;59.23
40940;BME280;26666;50.156;7.700;2023-04-21T12:52:19;99919.88;;;16.00;57.63
40940;BME280;26666;50.156;7.700;2023-04-21T12:57:21;99921.41;;;15.63;59.34
40940;BME280;26666;50.156;7.700;2023-04-21T13:02:24;99905.53;;;15.69;60.26
40940;BME280;26666;50.156;7.700;2023-04-21T13:07:26;99904.56;;;15.93;57.90
40940;BME280;26666;50.156;7.700;2023-04-21T13:12:28;99917.34;;;15.75;58.93
40940;BME280;26666;50.156;7.700;2023-04-21T13:17:31;99912.69;;;15.69;60.26
40940;BME280;26666;50.156;7.700;2023-04-21T13:22:32;99915.84;;;15.41;60.98
40940;BME280;26666;50.156;7.700;2023-04-21T13:27:34;99913.13;;;15.49;59.53
40940;BME280;26666;50.156;7.700;2023-04-21T13:32:37;99898.16;;;15.48;62.15
40940;BME280;26666;50.156;7.700;2023-04-21T13:37:40;99891.97;;;15.16;63.26
40940;BME280;26666;50.156;7.700;2023-04-21T13:42:41;99885.03;;;15.07;67.44
40940;BME280;26666;50.156;7.700;2023-04-21T13:47:44;99874.28;;;15.32;65.31
40940;BME280;26666;50.156;7.700;2023-04-21T13:52:46;99873.25;;;15.41;64.83
40940;BME280;26666;50.156;7.700;2023-04-21T13:57:48;99871.56;;;15.09;68.31
40940;BME280;26666;50.156;7.700;2023-04-21T14:02:51;99870.06;;;15.46;67.24
40940;BME280;26666;50.156;7.700;2023-04-21T14:07:53;99853.47;;;15.67;65.48
40940;BME280;26666;50.156;7.700;2023-04-21T14:12:55;99850.09;;;15.42;68.17
40940;BME280;26666;50.156;7.700;2023-04-21T14:17:58;99839.97;;;15.68;65.49
40940;BME280;26666;50.156;7.700;2023-04-21T14:23:00;99837.41;;;15.52;67.61
40940;BME280;26666;50.156;7.700;2023-04-21T14:28:01;99827.91;;;15.26;69.00
40940;BME280;26666;50.156;7.700;2023-04-21T14:33:05;99831.00;;;15.07;71.17
40940;BME280;26666;50.156;7.700;2023-04-21T14:38:06;99836.75;;;15.18;69.27
40940;BME280;26666;50.156;7.700;2023-04-21T14:43:08;99828.66;;;15.04;72.04
40940;BME280;26666;50.156;7.700;2023-04-21T14:48:11;99829.59;;;15.19;70.88
40940;BME280;26666;50.156;7.700;2023-04-21T14:53:13;99810.69;;;15.37;69.15
40940;BME280;26666;50.156;7.700;2023-04-21T14:58:15;99806.47;;;15.19;69.33
40940;BME280;26666;50.156;7.700;2023-04-21T15:03:18;99798.94;;;14.92;71.73
40940;BME280;26666;50.156;7.700;2023-04-21T15:08:20;99784.66;;;15.24;68.58
40940;BME280;26666;50.156;7.700;2023-04-21T15:13:21;99791.13;;;14.98;71.93
40940;BME280;26666;50.156;7.700;2023-04-21T15:18:25;99782.22;;;14.83;72.85
40940;BME280;26666;50.156;7.700;2023-04-21T15:23:26;99769.16;;;14.65;77.46
40940;BME280;26666;50.156;7.700;2023-04-21T15:28:28;99770.97;;;14.65;78.89
40940;BME280;26666;50.156;7.700;2023-04-21T15:33:31;99763.47;;;14.68;78.26
40940;BME280;26666;50.156;7.700;2023-04-21T15:38:33;99750.56;;;14.49;76.84
40940;BME280;26666;50.156;7.700;2023-04-21T15:43:35;99741.97;;;14.38;79.36
40940;BME280;26666;50.156;7.700;2023-04-21T15:48:38;99743.03;;;14.69;75.24
40940;BME280;26666;50.156;7.700;2023-04-21T15:53:39;99745.44;;;14.39;79.08
40940;BME280;26666;50.156;7.700;2023-04-21T15:58:42;99744.03;;;14.68;75.18
40940;BME280;26666;50.156;7.700;2023-04-21T16:03:45;99739.72;;;14.75;74.56
40940;BME280;26666;50.156;7.700;2023-04-21T16:08:47;99729.50;;;14.87;74.68
40940;BME280;26666;50.156;7.700;2023-04-21T16:13:48;99716.84;;;14.57;77.22
40940;BME280;26666;50.156;7.700;2023-04-21T16:18:52;99707.53;;;14.45;79.14
40940;BME280;26666;50.156;7.700;2023-04-21T16:23:54;99715.84;;;14.58;75.41
40940;BME280;26666;50.156;7.700;2023-04-21T16:28:56;99696.47;;;14.33;79.52
40940;BME280;26666;50.156;7.700;2023-04-21T16:33:59;99693.75;;;14.89;75.87
40940;BME280;26666;50.156;7.700;2023-04-21T16:39:01;99700.41;;;14.85;75.93
40940;BME280;26666;50.156;7.700;2023-04-21T16:44:03;99695.88;;;14.94;73.39
40940;BME280;26666;50.156;7.700;2023-04-21T16:49:06;99700.38;;;15.16;71.58
40940;BME280;26666;50.156;7.700;2023-04-21T16:54:08;99701.31;;;15.01;73.97
40940;BME280;26666;50.156;7.700;2023-04-21T16:59:09;99720.13;;;14.99;73.13
40940;BME280;26666;50.156;7.700;2023-04-21T17:04:15;99725.56;;;14.74;74.93
40940;BME280;26666;50.156;7.700;2023-04-21T17:09:17;99731.94;;;14.49;76.93
40940;BME280;26666;50.156;7.700;2023-04-21T17:14:18;99743.56;;;14.64;77.31
40940;BME280;26666;50.156;7.700;2023-04-21T17:19:22;99746.47;;;14.30;79.13
40940;BME280;26666;50.156;7.700;2023-04-21T17:24:26;99758.56;;;14.40;79.18
40940;BME280;26666;50.156;7.700;2023-04-21T17:29:38;99768.72;;;14.29;80.89
40940;BME280;26666;50.156;7.700;2023-04-21T17:34:41;99782.19;;;14.27;86.43
40940;BME280;26666;50.156;7.700;2023-04-21T17:39:43;99781.03;;;14.22;89.82
40940;BME280;26666;50.156;7.700;2023-04-21T17:44:45;99787.34;;;14.20;93.75
40940;BME280;26666;50.156;7.700;2023-04-21T17:49:48;99850.75;;;13.91;100.00
40940;BME280;26666;50.156;7.700;2023-04-21T17:54:49;99904.53;;;13.76;100.00
40940;BME280;26666;50.156;7.700;2023-04-21T17:59:57;99890.91;;;13.29;100.00
40940;BME280;26666;50.156;7.700;2023-04-21T18:05:01;99811.38;;;12.60;100.00
40940;BME280;26666;50.156;7.700;2023-04-21T18:10:03;99704.72;;;12.66;100.00
40940;BME280;26666;50.156;7.700;2023-04-21T18:15:06;99736.69;;;12.65;100.00
40940;BME280;26666;50.156;7.700;2023-04-21T18:20:10;99778.06;;;12.49;100.00
40940;BME280;26666;50.156;7.700;2023-04-21T18:25:12;99769.44;;;12.21;100.00
40940;BME280;26666;50.156;7.700;2023-04-21T18:30:13;99765.53;;;12.07;100.00
40940;BME280;26666;50.156;7.700;2023-04-21T18:35:17;99753.88;;;11.74;100.00
40940;BME280;26666;50.156;7.700;2023-04-21T18:40:18;99756.00;;;11.52;100.00
40940;BME280;26666;50.156;7.700;2023-04-21T18:45:20;99761.81;;;11.38;100.00
40940;BME280;26666;50.156;7.700;2023-04-21T18:50:24;99761.66;;;11.21;100.00
40940;BME280;26666;50.156;7.700;2023-04-21T18:55:26;99772.22;;;11.03;100.00
40940;BME280;26666;50.156;7.700;2023-04-21T19:00:28;99777.22;;;10.79;100.00
40940;BME280;26666;50.156;7.700;2023-04-21T19:05:31;99783.63;;;10.76;100.00
40940;BME280;26666;50.156;7.700;2023-04-21T19:10:33;99796.19;;;10.64;100.00
40940;BME280;26666;50.156;7.700;2023-04-21T19:15:35;99787.63;;;10.80;100.00
40940;BME280;26666;50.156;7.700;2023-04-21T19:20:38;99794.88;;;10.78;100.00
40940;BME280;26666;50.156;7.700;2023-04-21T19:25:40;99793.28;;;10.58;100.00
40940;BME280;26666;50.156;7.700;2023-04-21T19:30:41;99800.84;;;10.53;100.00
40940;BME280;26666;50.156;7.700;2023-04-21T19:35:44;99813.53;;;10.39;100.00
40940;BME280;26666;50.156;7.700;2023-04-21T19:40:46;99809.91;;;10.21;100.00
40940;BME280;26666;50.156;7.700;2023-04-21T19:45:48;99815.75;;;10.15;100.00
40940;BME280;26666;50.156;7.700;2023-04-21T19:50:51;99817.72;;;10.13;100.00
40940;BME280;26666;50.156;7.700;2023-04-21T19:55:53;99824.66;;;9.94;100.00
40940;BME280;26666;50.156;7.700;2023-04-21T20:00:54;99826.22;;;9.87;100.00
40940;BME280;26666;50.156;7.700;2023-04-21T20:05:57;99816.34;;;9.70;100.00
40940;BME280;26666;50.156;7.700;2023-04-21T20:10:59;99821.63;;;9.60;100.00
40940;BME280;26666;50.156;7.700;2023-04-21T20:16:00;99824.97;;;9.62;100.00
40940;BME280;26666;50.156;7.700;2023-04-21T20:21:04;99827.72;;;9.51;100.00
40940;BME280;26666;50.156;7.700;2023-04-21T20:26:06;99825.91;;;9.41;100.00
40940;BME280;26666;50.156;7.700;2023-04-21T20:31:07;99819.13;;;9.58;100.00
40940;BME280;26666;50.156;7.700;2023-04-21T20:36:10;99808.84;;;9.55;100.00
40940;BME280;26666;50.156;7.700;2023-04-21T20:41:12;99796.78;;;9.62;100.00
40940;BME280;26666;50.156;7.700;2023-04-21T20:46:14;99798.56;;;9.42;100.00
40940;BME280;26666;50.156;7.700;2023-04-21T20:51:17;99788.03;;;9.52;100.00
40940;BME280;26666;50.156;7.700;2023-04-21T20:56:19;99803.97;;;9.41;100.00
40940;BME280;26666;50.156;7.700;2023-04-21T21:01:20;99812.47;;;9.54;100.00
40940;BME280;26666;50.156;7.700;2023-04-21T21:06:24;99808.81;;;9.36;100.00
40940;BME280;26666;50.156;7.700;2023-04-21T21:11:25;99810.06;;;9.32;100.00
40940;BME280;26666;50.156;7.700;2023-04-21T21:16:27;99811.19;;;9.39;100.00
40940;BME280;26666;50.156;7.700;2023-04-21T21:21:30;99810.38;;;9.48;100.00
40940;BME280;26666;50.156;7.700;2023-04-21T21:26:32;99818.53;;;9.45;100.00
40940;BME280;26666;50.156;7.700;2023-04-21T21:31:34;99821.63;;;9.50;100.00
40940;BME280;26666;50.156;7.700;2023-04-21T21:36:37;99817.41;;;9.28;100.00
40940;BME280;26666;50.156;7.700;2023-04-21T21:41:39;99817.41;;;9.38;100.00
40940;BME280;26666;50.156;7.700;2023-04-21T21:46:41;99814.97;;;9.56;100.00
40940;BME280;26666;50.156;7.700;2023-04-21T21:51:44;99811.75;;;9.52;100.00
40940;BME280;26666;50.156;7.700;2023-04-21T21:56:46;99799.41;;;9.62;100.00
40940;BME280;26666;50.156;7.700;2023-04-21T22:01:48;99800.41;;;9.61;100.00
40940;BME280;26666;50.156;7.700;2023-04-21T22:06:51;99800.53;;;9.70;100.00
40940;BME280;26666;50.156;7.700;2023-04-21T22:11:53;99799.00;;;9.67;100.00
40940;BME280;26666;50.156;7.700;2023-04-21T22:16:58;99805.09;;;9.48;100.00
40940;BME280;26666;50.156;7.700;2023-04-21T22:22:01;99801.34;;;9.51;100.00
40940;BME280;26666;50.156;7.700;2023-04-21T22:27:03;99818.16;;;9.69;100.00
40940;BME280;26666;50.156;7.700;2023-04-21T22:32:05;99804.38;;;9.26;100.00
40940;BME280;26666;50.156;7.700;2023-04-21T22:37:08;99813.38;;;9.24;100.00
40940;BME280;26666;50.156;7.700;2023-04-21T22:42:09;99816.31;;;9.21;100.00
40940;BME280;26666;50.156;7.700;2023-04-21T22:47:11;99816.03;;;9.34;100.00
40940;BME280;26666;50.156;7.700;2023-04-21T22:52:14;99810.72;;;9.14;100.00
40940;BME280;26666;50.156;7.700;2023-04-21T22:57:16;99816.53;;;9.08;100.00
40940;BME280;26666;50.156;7.700;2023-04-21T23:02:18;99810.88;;;9.13;100.00
40940;BME280;26666;50.156;7.700;2023-04-21T23:07:21;99804.50;;;9.15;100.00
40940;BME280;26666;50.156;7.700;2023-04-21T23:12:23;99801.19;;;9.23;100.00
40940;BME280;26666;50.156;7.700;2023-04-21T23:17:25;99809.50;;;9.28;100.00
40940;BME280;26666;50.156;7.700;2023-04-21T23:22:30;99801.72;;;9.07;100.00
40940;BME280;26666;50.156;7.700;2023-04-21T23:27:34;99796.84;;;9.12;100.00
40940;BME280;26666;50.156;7.700;2023-04-21T23:32:35;99794.50;;;9.09;100.00
40940;BME280;26666;50.156;7.700;2023-04-21T23:37:39;99798.69;;;9.21;100.00
40940;BME280;26666;50.156;7.700;2023-04-21T23:42:40;99793.50;;;9.10;100.00
40940;BME280;26666;50.156;7.700;2023-04-21T23:47:48;99803.38;;;9.18;100.00
40940;BME280;26666;50.156;7.700;2023-04-21T23:52:51;99804.06;;;9.20;100.00
40940;BME280;26666;50.156;7.700;2023-04-21T23:57:52;99804.47;;;9.05;100.00
